sensor_id;sensor_type;location;lat;lon;timestamp;pressure;altitude;pressure_sealevel;temperature;humidity
38303;BME280;24103;42.454;27.400;2023-05-09T00:02:09;101186.28;;;12.31;100.00
38303;BME280;24103;42.454;27.400;2023-05-09T00:04:34;101191.81;;;12.26;100.00
38303;BME280;24103;42.454;27.400;2023-05-09T00:07:00;101183.88;;;12.26;100.00
38303;BME280;24103;42.454;27.400;2023-05-09T00:09:26;101195.56;;;12.22;100.00
38303;BME280;24103;42.454;27.400;2023-05-09T00:11:51;101196.44;;;12.23;100.00
38303;BME280;24103;42.454;27.400;2023-05-09T00:14:16;101192.66;;;12.27;100.00
38303;BME280;24103;42.454;27.400;2023-05-09T00:16:43;101190.94;;;12.26;100.00
38303;BME280;24103;42.454;27.400;2023-05-09T00:19:09;101185.03;;;12.21;100.00
38303;BME280;24103;42.454;27.400;2023-05-09T00:21:34;101178.31;;;12.15;100.00
38303;BME280;24103;42.454;27.400;2023-05-09T00:24:00;101186.94;;;12.19;100.00
38303;BME280;24103;42.454;27.400;2023-05-09T00:26:26;101186.78;;;12.22;100.00
38303;BME280;24103;42.454;27.400;2023-05-09T00:28:51;101192.00;;;12.23;100.00
38303;BME280;24103;42.454;27.400;2023-05-09T00:31:17;101193.00;;;12.21;100.00
38303;BME280;24103;42.454;27.400;2023-05-09T00:33:42;101189.34;;;12.23;100.00
38303;BME280;24103;42.454;27.400;2023-05-09T00:36:08;101198.72;;;12.29;100.00
38303;BME280;24103;42.454;27.400;2023-05-09T00:38:33;101202.34;;;12.28;100.00
38303;BME280;24103;42.454;27.400;2023-05-09T00:40:59;101209.84;;;12.20;100.00
38303;BME280;24103;42.454;27.400;2023-05-09T00:43:24;101207.81;;;12.25;100.00
38303;BME280;24103;42.454;27.400;2023-05-09T00:45:50;101206.09;;;12.24;100.00
38303;BME280;24103;42.454;27.400;2023-05-09T00:48:16;101198.13;;;12.24;100.00
38303;BME280;24103;42.454;27.400;2023-05-09T00:50:42;101198.13;;;12.24;100.00
38303;BME280;24103;42.454;27.400;2023-05-09T00:53:08;101197.88;;;12.28;100.00
38303;BME280;24103;42.454;27.400;2023-05-09T00:55:33;101210.03;;;12.32;100.00
38303;BME280;24103;42.454;27.400;2023-05-09T00:57:59;101201.97;;;12.34;100.00
38303;BME280;24103;42.454;27.400;2023-05-09T01:00:24;101207.28;;;12.34;100.00
38303;BME280;24103;42.454;27.400;2023-05-09T01:02:52;101202.84;;;12.34;100.00
38303;BME280;24103;42.454;27.400;2023-05-09T01:05:19;101219.84;;;12.30;100.00
38303;BME280;24103;42.454;27.400;2023-05-09T01:07:59;101211.56;;;12.37;100.00
38303;BME280;24103;42.454;27.400;2023-05-09T01:13:40;101206.97;;;12.40;100.00
38303;BME280;24103;42.454;27.400;2023-05-09T01:16:19;101205.44;;;12.36;100.00
38303;BME280;24103;42.454;27.400;2023-05-09T01:18:54;101193.63;;;12.42;100.00
38303;BME280;24103;42.454;27.400;2023-05-09T01:21:29;101194.75;;;12.38;100.00
38303;BME280;24103;42.454;27.400;2023-05-09T01:26:44;101209.69;;;12.39;100.00
38303;BME280;24103;42.454;27.400;2023-05-09T01:32:24;101200.13;;;12.36;100.00
38303;BME280;24103;42.454;27.400;2023-05-09T01:35:00;101201.56;;;12.42;100.00
38303;BME280;24103;42.454;27.400;2023-05-09T01:37:31;101193.38;;;12.46;100.00
38303;BME280;24103;42.454;27.400;2023-05-09T01:40:07;101200.41;;;12.47;100.00
38303;BME280;24103;42.454;27.400;2023-05-09T01:42:41;101200.47;;;12.46;100.00
38303;BME280;24103;42.454;27.400;2023-05-09T01:45:09;101199.28;;;12.51;100.00
38303;BME280;24103;42.454;27.400;2023-05-09T01:47:36;101199.44;;;12.48;100.00
38303;BME280;24103;42.454;27.400;2023-05-09T01:50:04;101197.56;;;12.34;100.00
38303;BME280;24103;42.454;27.400;2023-05-09T01:52:30;101184.03;;;12.23;100.00
38303;BME280;24103;42.454;27.400;2023-05-09T01:54:57;101198.28;;;12.21;100.00
38303;BME280;24103;42.454;27.400;2023-05-09T01:57:23;101195.31;;;12.27;100.00
38303;BME280;24103;42.454;27.400;2023-05-09T01:59:50;101202.44;;;12.26;100.00
38303;BME280;24103;42.454;27.400;2023-05-09T02:02:16;101196.16;;;12.27;100.00
38303;BME280;24103;42.454;27.400;2023-05-09T02:04:42;101186.34;;;12.13;100.00
38303;BME280;24103;42.454;27.400;2023-05-09T02:07:10;101191.34;;;12.02;100.00
38303;BME280;24103;42.454;27.400;2023-05-09T02:09:36;101191.75;;;11.94;100.00
38303;BME280;24103;42.454;27.400;2023-05-09T02:12:02;101192.69;;;11.93;100.00
38303;BME280;24103;42.454;27.400;2023-05-09T02:14:29;101187.63;;;11.89;100.00
38303;BME280;24103;42.454;27.400;2023-05-09T02:16:55;101187.41;;;11.93;100.00
38303;BME280;24103;42.454;27.400;2023-05-09T02:19:20;101200.84;;;11.89;100.00
38303;BME280;24103;42.454;27.400;2023-05-09T02:21:46;101195.34;;;11.93;100.00
38303;BME280;24103;42.454;27.400;2023-05-09T02:24:11;101191.66;;;11.96;100.00
38303;BME280;24103;42.454;27.400;2023-05-09T02:26:37;101204.28;;;11.91;100.00
38303;BME280;24103;42.454;27.400;2023-05-09T02:29:05;101200.78;;;11.90;100.00
38303;BME280;24103;42.454;27.400;2023-05-09T02:31:32;101210.75;;;11.85;100.00
38303;BME280;24103;42.454;27.400;2023-05-09T02:33:59;101211.44;;;11.89;100.00
38303;BME280;24103;42.454;27.400;2023-05-09T02:36:26;101215.81;;;11.90;100.00
38303;BME280;24103;42.454;27.400;2023-05-09T02:38:53;101209.19;;;11.98;100.00
38303;BME280;24103;42.454;27.400;2023-05-09T02:41:18;101220.03;;;11.94;100.00
38303;BME280;24103;42.454;27.400;2023-05-09T02:43:44;101216.75;;;11.89;100.00
38303;BME280;24103;42.454;27.400;2023-05-09T02:46:10;101207.88;;;11.90;100.00
38303;BME280;24103;42.454;27.400;2023-05-09T02:48:35;101211.16;;;11.95;100.00
38303;BME280;24103;42.454;27.400;2023-05-09T02:51:01;101214.25;;;11.86;100.00
38303;BME280;24103;42.454;27.400;2023-05-09T02:53:27;101214.34;;;11.84;100.00
38303;BME280;24103;42.454;27.400;2023-05-09T02:55:52;101215.22;;;11.85;100.00
38303;BME280;24103;42.454;27.400;2023-05-09T02:58:19;101211.75;;;11.83;100.00
38303;BME280;24103;42.454;27.400;2023-05-09T03:00:44;101218.84;;;11.82;100.00
38303;BME280;24103;42.454;27.400;2023-05-09T03:03:10;101213.56;;;11.82;100.00
38303;BME280;24103;42.454;27.400;2023-05-09T03:05:35;101219.56;;;11.86;100.00
38303;BME280;24103;42.454;27.400;2023-05-09T03:08:01;101216.22;;;11.82;100.00
38303;BME280;24103;42.454;27.400;2023-05-09T03:10:26;101220.59;;;11.83;100.00
38303;BME280;24103;42.454;27.400;2023-05-09T03:12:52;101224.94;;;11.84;100.00
38303;BME280;24103;42.454;27.400;2023-05-09T03:15:18;101233.56;;;11.88;100.00
38303;BME280;24103;42.454;27.400;2023-05-09T03:17:43;101235.75;;;11.97;100.00
38303;BME280;24103;42.454;27.400;2023-05-09T03:20:09;101237.56;;;11.96;100.00
38303;BME280;24103;42.454;27.400;2023-05-09T03:22:35;101239.34;;;11.96;100.00
38303;BME280;24103;42.454;27.400;2023-05-09T03:25:01;101245.59;;;11.95;100.00
38303;BME280;24103;42.454;27.400;2023-05-09T03:27:27;101257.03;;;11.95;100.00
38303;BME280;24103;42.454;27.400;2023-05-09T03:29:52;101251.66;;;11.97;100.00
38303;BME280;24103;42.454;27.400;2023-05-09T03:32:18;101257.19;;;11.92;100.00
38303;BME280;24103;42.454;27.400;2023-05-09T03:34:43;101261.25;;;12.00;100.00
38303;BME280;24103;42.454;27.400;2023-05-09T03:37:08;101271.50;;;12.06;100.00
38303;BME280;24103;42.454;27.400;2023-05-09T03:39:34;101267.16;;;12.05;100.00
38303;BME280;24103;42.454;27.400;2023-05-09T03:41:59;101272.44;;;12.05;100.00
38303;BME280;24103;42.454;27.400;2023-05-09T03:44:25;101283.97;;;12.04;100.00
38303;BME280;24103;42.454;27.400;2023-05-09T03:46:50;101277.81;;;12.03;100.00
38303;BME280;24103;42.454;27.400;2023-05-09T03:49:16;101289.72;;;12.12;100.00
38303;BME280;24103;42.454;27.400;2023-05-09T03:51:41;101292.91;;;12.19;100.00
38303;BME280;24103;42.454;27.400;2023-05-09T03:54:07;101288.28;;;12.22;100.00
38303;BME280;24103;42.454;27.400;2023-05-09T03:56:32;101291.09;;;12.19;100.00
38303;BME280;24103;42.454;27.400;2023-05-09T03:58:58;101292.13;;;12.16;100.00
38303;BME280;24103;42.454;27.400;2023-05-09T04:01:24;101289.34;;;12.20;100.00
38303;BME280;24103;42.454;27.400;2023-05-09T04:03:49;101292.44;;;12.28;100.00
38303;BME280;24103;42.454;27.400;2023-05-09T04:06:16;101297.72;;;12.28;100.00
38303;BME280;24103;42.454;27.400;2023-05-09T04:08:42;101296.16;;;12.24;100.00
38303;BME280;24103;42.454;27.400;2023-05-09T04:11:08;101304.72;;;12.29;100.00
38303;BME280;24103;42.454;27.400;2023-05-09T04:13:33;101301.22;;;12.28;100.00
38303;BME280;24103;42.454;27.400;2023-05-09T04:15:58;101305.91;;;12.23;100.00
38303;BME280;24103;42.454;27.400;2023-05-09T04:18:24;101308.34;;;12.28;100.00
38303;BME280;24103;42.454;27.400;2023-05-09T04:20:50;101303.34;;;12.22;100.00
38303;BME280;24103;42.454;27.400;2023-05-09T04:23:15;101309.56;;;12.21;100.00
38303;BME280;24103;42.454;27.400;2023-05-09T04:25:41;101313.88;;;12.23;100.00
38303;BME280;24103;42.454;27.400;2023-05-09T04:28:06;101315.47;;;12.26;100.00
38303;BME280;24103;42.454;27.400;2023-05-09T04:30:32;101320.97;;;12.23;100.00
38303;BME280;24103;42.454;27.400;2023-05-09T04:32:57;101318.41;;;12.21;100.00
38303;BME280;24103;42.454;27.400;2023-05-09T04:35:23;101321.41;;;12.31;100.00
38303;BME280;24103;42.454;27.400;2023-05-09T04:37:48;101319.84;;;12.27;100.00
38303;BME280;24103;42.454;27.400;2023-05-09T04:40:14;101319.84;;;12.27;100.00
38303;BME280;24103;42.454;27.400;2023-05-09T04:42:40;101323.44;;;12.26;100.00
38303;BME280;24103;42.454;27.400;2023-05-09T04:45:06;101330.59;;;12.24;100.00
38303;BME280;24103;42.454;27.400;2023-05-09T04:47:32;101318.63;;;12.16;100.00
38303;BME280;24103;42.454;27.400;2023-05-09T04:49:58;101331.31;;;12.27;100.00
38303;BME280;24103;42.454;27.400;2023-05-09T04:52:23;101332.56;;;12.38;100.00
38303;BME280;24103;42.454;27.400;2023-05-09T04:54:49;101326.34;;;12.21;100.00
38303;BME280;24103;42.454;27.400;2023-05-09T04:57:15;101320.78;;;12.26;100.00
38303;BME280;24103;42.454;27.400;2023-05-09T04:59:41;101325.84;;;12.30;100.00
38303;BME280;24103;42.454;27.400;2023-05-09T05:02:06;101321.19;;;12.51;100.00
38303;BME280;24103;42.454;27.400;2023-05-09T05:04:31;101317.91;;;12.64;100.00
38303;BME280;24103;42.454;27.400;2023-05-09T05:06:58;101320.19;;;12.70;100.00
38303;BME280;24103;42.454;27.400;2023-05-09T05:09:23;101316.88;;;12.66;100.00
38303;BME280;24103;42.454;27.400;2023-05-09T05:11:48;101320.72;;;12.61;100.00
38303;BME280;24103;42.454;27.400;2023-05-09T05:14:14;101318.16;;;12.59;100.00
38303;BME280;24103;42.454;27.400;2023-05-09T05:16:40;101311.59;;;12.82;100.00
38303;BME280;24103;42.454;27.400;2023-05-09T05:19:06;101321.50;;;13.11;100.00
38303;BME280;24103;42.454;27.400;2023-05-09T05:21:31;101307.75;;;13.04;100.00
38303;BME280;24103;42.454;27.400;2023-05-09T05:23:57;101312.50;;;13.13;100.00
38303;BME280;24103;42.454;27.400;2023-05-09T05:26:22;101310.78;;;13.28;100.00
38303;BME280;24103;42.454;27.400;2023-05-09T05:28:49;101309.44;;;13.21;100.00
38303;BME280;24103;42.454;27.400;2023-05-09T05:31:19;101311.50;;;13.16;100.00
38303;BME280;24103;42.454;27.400;2023-05-09T05:33:45;101306.94;;;13.18;100.00
38303;BME280;24103;42.454;27.400;2023-05-09T05:36:11;101314.41;;;13.27;100.00
38303;BME280;24103;42.454;27.400;2023-05-09T05:38:36;101314.16;;;13.16;100.00
38303;BME280;24103;42.454;27.400;2023-05-09T05:41:01;101315.69;;;13.36;100.00
38303;BME280;24103;42.454;27.400;2023-05-09T05:43:27;101320.34;;;13.62;100.00
38303;BME280;24103;42.454;27.400;2023-05-09T05:45:53;101319.31;;;13.65;100.00
38303;BME280;24103;42.454;27.400;2023-05-09T05:48:18;101316.66;;;13.65;100.00
38303;BME280;24103;42.454;27.400;2023-05-09T05:50:44;101321.50;;;14.03;100.00
38303;BME280;24103;42.454;27.400;2023-05-09T05:53:09;101318.59;;;14.36;100.00
38303;BME280;24103;42.454;27.400;2023-05-09T05:55:35;101313.50;;;14.62;100.00
38303;BME280;24103;42.454;27.400;2023-05-09T05:58:00;101320.22;;;14.68;100.00
38303;BME280;24103;42.454;27.400;2023-05-09T06:00:25;101318.22;;;14.86;100.00
38303;BME280;24103;42.454;27.400;2023-05-09T06:02:51;101316.81;;;14.80;100.00
38303;BME280;24103;42.454;27.400;2023-05-09T06:05:18;101324.91;;;14.64;100.00
38303;BME280;24103;42.454;27.400;2023-05-09T06:07:43;101336.19;;;14.68;100.00
38303;BME280;24103;42.454;27.400;2023-05-09T06:10:09;101330.31;;;14.63;100.00
38303;BME280;24103;42.454;27.400;2023-05-09T06:12:35;101339.41;;;14.44;100.00
38303;BME280;24103;42.454;27.400;2023-05-09T06:15:01;101344.13;;;14.25;100.00
38303;BME280;24103;42.454;27.400;2023-05-09T06:17:29;101348.13;;;14.17;100.00
38303;BME280;24103;42.454;27.400;2023-05-09T06:19:54;101339.97;;;14.21;100.00
38303;BME280;24103;42.454;27.400;2023-05-09T06:22:20;101359.22;;;14.24;100.00
38303;BME280;24103;42.454;27.400;2023-05-09T06:24:45;101353.91;;;14.24;100.00
38303;BME280;24103;42.454;27.400;2023-05-09T06:27:11;101350.28;;;14.11;100.00
38303;BME280;24103;42.454;27.400;2023-05-09T06:29:36;101349.41;;;14.10;100.00
38303;BME280;24103;42.454;27.400;2023-05-09T06:32:02;101355.06;;;14.34;100.00
38303;BME280;24103;42.454;27.400;2023-05-09T06:34:27;101353.97;;;14.67;100.00
38303;BME280;24103;42.454;27.400;2023-05-09T06:36:52;101345.09;;;14.38;100.00
38303;BME280;24103;42.454;27.400;2023-05-09T06:39:18;101343.28;;;14.38;100.00
38303;BME280;24103;42.454;27.400;2023-05-09T06:41:43;101343.94;;;14.56;100.00
38303;BME280;24103;42.454;27.400;2023-05-09T06:44:09;101340.53;;;14.98;100.00
38303;BME280;24103;42.454;27.400;2023-05-09T06:46:34;101333.72;;;15.21;100.00
38303;BME280;24103;42.454;27.400;2023-05-09T06:49:00;101340.53;;;14.98;100.00
38303;BME280;24103;42.454;27.400;2023-05-09T06:51:26;101335.25;;;14.69;100.00
38303;BME280;24103;42.454;27.400;2023-05-09T06:53:52;101341.41;;;14.69;100.00
38303;BME280;24103;42.454;27.400;2023-05-09T06:56:17;101344.38;;;14.65;100.00
38303;BME280;24103;42.454;27.400;2023-05-09T06:58:45;101348.03;;;14.48;100.00
38303;BME280;24103;42.454;27.400;2023-05-09T07:01:11;101352.78;;;14.43;100.00
38303;BME280;24103;42.454;27.400;2023-05-09T07:03:36;101354.50;;;14.29;100.00
38303;BME280;24103;42.454;27.400;2023-05-09T07:06:02;101351.44;;;14.50;100.00
38303;BME280;24103;42.454;27.400;2023-05-09T07:08:29;101347.91;;;14.65;100.00
38303;BME280;24103;42.454;27.400;2023-05-09T07:10:54;101338.19;;;14.79;100.00
38303;BME280;24103;42.454;27.400;2023-05-09T07:13:20;101332.97;;;14.91;100.00
38303;BME280;24103;42.454;27.400;2023-05-09T07:15:45;101325.22;;;15.01;100.00
38303;BME280;24103;42.454;27.400;2023-05-09T07:18:10;101329.88;;;14.98;100.00
38303;BME280;24103;42.454;27.400;2023-05-09T07:20:36;101322.44;;;15.03;100.00
38303;BME280;24103;42.454;27.400;2023-05-09T07:23:02;101325.53;;;15.24;100.00
38303;BME280;24103;42.454;27.400;2023-05-09T07:25:28;101332.13;;;15.45;100.00
38303;BME280;24103;42.454;27.400;2023-05-09T07:27:54;101328.56;;;15.59;100.00
38303;BME280;24103;42.454;27.400;2023-05-09T07:30:21;101287.03;;;17.34;90.24
38303;BME280;24103;42.454;27.400;2023-05-09T07:32:46;101266.94;;;19.86;73.75
38303;BME280;24103;42.454;27.400;2023-05-09T07:35:11;101246.31;;;20.49;58.92
38303;BME280;24103;42.454;27.400;2023-05-09T07:37:37;101252.59;;;19.76;60.74
38303;BME280;24103;42.454;27.400;2023-05-09T07:40:03;101265.34;;;18.98;67.22
38303;BME280;24103;42.454;27.400;2023-05-09T07:42:30;101275.25;;;18.41;71.21
38303;BME280;24103;42.454;27.400;2023-05-09T07:44:57;101287.06;;;17.80;74.84
38303;BME280;24103;42.454;27.400;2023-05-09T07:47:23;101293.47;;;17.66;78.35
38303;BME280;24103;42.454;27.400;2023-05-09T07:49:49;101296.28;;;17.41;81.51
38303;BME280;24103;42.454;27.400;2023-05-09T07:52:14;101293.63;;;17.41;79.46
38303;BME280;24103;42.454;27.400;2023-05-09T07:54:41;101292.63;;;17.66;75.29
38303;BME280;24103;42.454;27.400;2023-05-09T07:57:06;101303.69;;;17.13;76.15
38303;BME280;24103;42.454;27.400;2023-05-09T07:59:32;101307.50;;;16.72;86.19
38303;BME280;24103;42.454;27.400;2023-05-09T08:01:57;101313.53;;;16.24;86.67
38303;BME280;24103;42.454;27.400;2023-05-09T08:04:23;101311.28;;;16.18;86.25
38303;BME280;24103;42.454;27.400;2023-05-09T08:06:48;101319.16;;;16.07;86.58
38303;BME280;24103;42.454;27.400;2023-05-09T08:09:14;101313.13;;;16.30;85.56
38303;BME280;24103;42.454;27.400;2023-05-09T08:11:39;101314.50;;;16.99;86.77
38303;BME280;24103;42.454;27.400;2023-05-09T08:14:05;101312.84;;;16.85;78.03
38303;BME280;24103;42.454;27.400;2023-05-09T08:16:30;101322.06;;;16.55;82.63
38303;BME280;24103;42.454;27.400;2023-05-09T08:18:56;101320.97;;;16.57;85.35
38303;BME280;24103;42.454;27.400;2023-05-09T08:21:22;101324.94;;;16.39;88.86
38303;BME280;24103;42.454;27.400;2023-05-09T08:23:47;101332.28;;;15.84;89.19
38303;BME280;24103;42.454;27.400;2023-05-09T08:26:13;101350.06;;;15.29;98.43
38303;BME280;24103;42.454;27.400;2023-05-09T08:28:38;101343.25;;;15.25;100.00
38303;BME280;24103;42.454;27.400;2023-05-09T08:31:04;101353.19;;;14.94;100.00
38303;BME280;24103;42.454;27.400;2023-05-09T08:33:29;101352.53;;;14.76;100.00
38303;BME280;24103;42.454;27.400;2023-05-09T08:35:55;101362.50;;;14.87;100.00
38303;BME280;24103;42.454;27.400;2023-05-09T08:38:21;101348.56;;;14.69;100.00
38303;BME280;24103;42.454;27.400;2023-05-09T08:40:46;101355.47;;;14.71;100.00
38303;BME280;24103;42.454;27.400;2023-05-09T08:43:15;101361.63;;;14.43;100.00
38303;BME280;24103;42.454;27.400;2023-05-09T08:46:08;101364.28;;;14.43;100.00
38303;BME280;24103;42.454;27.400;2023-05-09T08:48:34;101361.88;;;14.38;100.00
38303;BME280;24103;42.454;27.400;2023-05-09T08:51:04;101375.19;;;14.38;100.00
38303;BME280;24103;42.454;27.400;2023-05-09T08:53:30;101372.47;;;14.10;100.00
38303;BME280;24103;42.454;27.400;2023-05-09T08:56:01;101371.41;;;13.98;100.00
38303;BME280;24103;42.454;27.400;2023-05-09T08:58:27;101367.44;;;14.05;100.00
38303;BME280;24103;42.454;27.400;2023-05-09T09:00:53;101364.72;;;14.21;100.00
38303;BME280;24103;42.454;27.400;2023-05-09T09:03:20;101366.41;;;14.22;100.00
38303;BME280;24103;42.454;27.400;2023-05-09T09:05:46;101377.75;;;14.26;100.00
38303;BME280;24103;42.454;27.400;2023-05-09T09:08:13;101365.03;;;13.86;100.00
38303;BME280;24103;42.454;27.400;2023-05-09T09:10:40;101365.28;;;13.81;100.00
38303;BME280;24103;42.454;27.400;2023-05-09T09:13:12;101362.63;;;14.12;100.00
38303;BME280;24103;42.454;27.400;2023-05-09T09:15:39;101361.69;;;14.13;100.00
38303;BME280;24103;42.454;27.400;2023-05-09T09:18:11;101365.63;;;13.91;100.00
38303;BME280;24103;42.454;27.400;2023-05-09T09:20:44;101367.03;;;13.97;100.00
38303;BME280;24103;42.454;27.400;2023-05-09T09:23:11;101365.84;;;14.03;100.00
38303;BME280;24103;42.454;27.400;2023-05-09T09:25:44;101378.34;;;14.45;100.00
38303;BME280;24103;42.454;27.400;2023-05-09T09:28:10;101358.41;;;14.96;100.00
38303;BME280;24103;42.454;27.400;2023-05-09T09:30:51;101353.75;;;14.99;100.00
38303;BME280;24103;42.454;27.400;2023-05-09T09:33:21;101352.06;;;14.98;100.00
38303;BME280;24103;42.454;27.400;2023-05-09T09:35:48;101354.47;;;15.01;100.00
38303;BME280;24103;42.454;27.400;2023-05-09T09:38:15;101366.09;;;14.43;100.00
38303;BME280;24103;42.454;27.400;2023-05-09T09:40:47;101357.56;;;14.52;100.00
38303;BME280;24103;42.454;27.400;2023-05-09T09:43:13;101360.63;;;14.60;100.00
38303;BME280;24103;42.454;27.400;2023-05-09T09:45:40;101357.75;;;14.63;100.00
38303;BME280;24103;42.454;27.400;2023-05-09T09:48:06;101375.63;;;14.16;100.00
38303;BME280;24103;42.454;27.400;2023-05-09T09:50:31;101372.47;;;14.10;100.00
38303;BME280;24103;42.454;27.400;2023-05-09T09:52:57;101373.41;;;13.94;100.00
38303;BME280;24103;42.454;27.400;2023-05-09T09:55:24;101378.22;;;13.88;100.00
38303;BME280;24103;42.454;27.400;2023-05-09T09:57:51;101379.06;;;13.88;100.00
38303;BME280;24103;42.454;27.400;2023-05-09T10:00:34;101382.25;;;13.79;100.00
38303;BME280;24103;42.454;27.400;2023-05-09T10:03:00;101375.59;;;14.02;100.00
38303;BME280;24103;42.454;27.400;2023-05-09T10:05:30;101379.66;;;13.93;100.00
38303;BME280;24103;42.454;27.400;2023-05-09T10:08:00;101382.47;;;13.90;100.00
38303;BME280;24103;42.454;27.400;2023-05-09T10:10:28;101371.53;;;13.80;100.00
38303;BME280;24103;42.454;27.400;2023-05-09T10:13:09;101365.72;;;13.74;100.00
38303;BME280;24103;42.454;27.400;2023-05-09T10:15:35;101366.91;;;13.84;100.00
38303;BME280;24103;42.454;27.400;2023-05-09T10:18:04;101362.78;;;13.94;100.00
38303;BME280;24103;42.454;27.400;2023-05-09T10:20:33;101359.72;;;14.31;100.00
38303;BME280;24103;42.454;27.400;2023-05-09T10:23:03;101341.28;;;14.56;100.00
38303;BME280;24103;42.454;27.400;2023-05-09T10:25:38;101350.22;;;14.99;100.00
38303;BME280;24103;42.454;27.400;2023-05-09T10:28:16;101343.44;;;15.22;100.00
38303;BME280;24103;42.454;27.400;2023-05-09T10:30:51;101334.63;;;15.34;100.00
38303;BME280;24103;42.454;27.400;2023-05-09T10:33:19;101349.38;;;14.98;100.00
38303;BME280;24103;42.454;27.400;2023-05-09T10:35:49;101338.75;;;15.25;100.00
38303;BME280;24103;42.454;27.400;2023-05-09T10:38:17;101335.75;;;15.44;100.00
38303;BME280;24103;42.454;27.400;2023-05-09T10:40:45;101336.03;;;15.13;100.00
38303;BME280;24103;42.454;27.400;2023-05-09T10:43:12;101338.16;;;15.35;100.00
38303;BME280;24103;42.454;27.400;2023-05-09T10:45:43;101329.34;;;15.74;100.00
38303;BME280;24103;42.454;27.400;2023-05-09T10:48:10;101314.47;;;15.57;94.04
38303;BME280;24103;42.454;27.400;2023-05-09T10:50:36;101319.13;;;14.99;91.79
38303;BME280;24103;42.454;27.400;2023-05-09T10:53:05;101320.84;;;15.15;91.76
38303;BME280;24103;42.454;27.400;2023-05-09T10:55:36;101317.84;;;15.19;95.96
38303;BME280;24103;42.454;27.400;2023-05-09T11:00:47;101331.97;;;14.92;100.00
38303;BME280;24103;42.454;27.400;2023-05-09T11:03:13;101335.91;;;14.87;100.00
38303;BME280;24103;42.454;27.400;2023-05-09T11:05:39;101339.91;;;14.65;100.00
38303;BME280;24103;42.454;27.400;2023-05-09T11:08:24;101340.44;;;14.56;100.00
38303;BME280;24103;42.454;27.400;2023-05-09T11:10:51;101346.09;;;14.66;100.00
38303;BME280;24103;42.454;27.400;2023-05-09T11:13:18;101346.38;;;14.61;100.00
38303;BME280;24103;42.454;27.400;2023-05-09T11:16:03;101352.25;;;14.52;100.00
38303;BME280;24103;42.454;27.400;2023-05-09T11:18:30;101350.75;;;14.62;100.00
38303;BME280;24103;42.454;27.400;2023-05-09T11:20:58;101354.72;;;14.69;100.00
38303;BME280;24103;42.454;27.400;2023-05-09T11:23:28;101343.69;;;15.86;99.11
38303;BME280;24103;42.454;27.400;2023-05-09T11:26:06;101339.13;;;16.65;92.87
38303;BME280;24103;42.454;27.400;2023-05-09T11:28:37;101315.25;;;17.01;83.85
38303;BME280;24103;42.454;27.400;2023-05-09T11:31:16;101324.47;;;16.97;83.28
38303;BME280;24103;42.454;27.400;2023-05-09T11:33:43;101318.72;;;17.14;83.84
38303;BME280;24103;42.454;27.400;2023-05-09T11:38:59;101310.94;;;17.59;77.12
38303;BME280;24103;42.454;27.400;2023-05-09T11:41:26;101308.38;;;17.58;78.67
38303;BME280;24103;42.454;27.400;2023-05-09T11:43:51;101306.94;;;17.89;77.81
38303;BME280;24103;42.454;27.400;2023-05-09T11:46:17;101313.16;;;17.17;80.20
38303;BME280;24103;42.454;27.400;2023-05-09T11:48:42;101308.22;;;17.00;84.15
38303;BME280;24103;42.454;27.400;2023-05-09T11:51:15;101312.50;;;17.26;81.03
38303;BME280;24103;42.454;27.400;2023-05-09T11:53:48;101299.63;;;17.56;76.66
38303;BME280;24103;42.454;27.400;2023-05-09T11:56:14;101309.06;;;17.48;74.35
38303;BME280;24103;42.454;27.400;2023-05-09T11:58:40;101313.38;;;17.14;80.45
38303;BME280;24103;42.454;27.400;2023-05-09T12:01:06;101341.94;;;17.01;81.25
38303;BME280;24103;42.454;27.400;2023-05-09T12:03:32;101302.53;;;17.28;75.57
38303;BME280;24103;42.454;27.400;2023-05-09T12:05:57;101302.59;;;17.16;76.49
38303;BME280;24103;42.454;27.400;2023-05-09T12:08:23;101314.91;;;17.54;75.04
38303;BME280;24103;42.454;27.400;2023-05-09T12:10:49;101302.94;;;17.35;75.93
38303;BME280;24103;42.454;27.400;2023-05-09T12:13:15;101312.88;;;16.59;81.34
38303;BME280;24103;42.454;27.400;2023-05-09T12:15:42;101313.16;;;16.80;84.48
38303;BME280;24103;42.454;27.400;2023-05-09T12:18:07;101313.59;;;16.61;85.10
38303;BME280;24103;42.454;27.400;2023-05-09T12:20:47;101321.75;;;16.21;88.51
38303;BME280;24103;42.454;27.400;2023-05-09T12:23:17;101307.66;;;16.06;88.23
38303;BME280;24103;42.454;27.400;2023-05-09T12:25:52;101307.09;;;16.52;89.16
38303;BME280;24103;42.454;27.400;2023-05-09T12:28:25;101309.47;;;16.57;84.52
38303;BME280;24103;42.454;27.400;2023-05-09T12:30:51;101295.72;;;16.37;85.23
38303;BME280;24103;42.454;27.400;2023-05-09T12:33:17;101289.34;;;16.90;81.10
38303;BME280;24103;42.454;27.400;2023-05-09T12:35:59;101293.25;;;16.60;81.92
38303;BME280;24103;42.454;27.400;2023-05-09T12:38:27;101284.25;;;16.61;81.46
38303;BME280;24103;42.454;27.400;2023-05-09T12:41:07;101281.44;;;16.88;79.74
38303;BME280;24103;42.454;27.400;2023-05-09T12:43:36;101279.06;;;16.97;80.35
38303;BME280;24103;42.454;27.400;2023-05-09T12:46:04;101277.31;;;17.33;77.97
38303;BME280;24103;42.454;27.400;2023-05-09T12:48:35;101274.16;;;17.98;73.45